Poplar, Montana
Current Conditions -  °F | °C
As of 10:53 AM on Friday 19 Dec 2014 (Local Time) from KOLF Reporting Station
Clear Clear  
Wind Chill: 27°   Ceiling: Unl
Heat Index: 27°   Visibility: 8mi
Dew Point: 24°   Wind: 0mph
Humidity: 89%   Direction: NA
Pressure: 29.93"   Gusts: NA
Location:  48.11°N, 105.2°W
Report Text: KOLF 191753Z AUTO 00000KT 8SM CLR M03/M04 A2993 RMK AO2 SLP167 T10281044 11028 21100 58002
Loading
Personal Weather Stations






























Interactive Weather Map New forecast layout! Learn more

10-Day Weather Forecast

Advertisements
Track Severe Weather on mobile